Main page
METAR-TAF:

METAR-TAF

Airports :

Dansville Municipal Airport

Dansville, New York, United States

latitude: 42-34-10N, longitude: 077-42-52W, elevation: 201 m

Current weather observation

The report was made 59 minutes ago, at 16:54 UTC
Wind 12 kt from the North
Temperature 24°C
Humidity 38%
Pressure 1020 hPa
Visibility: 16.1 km
Few clouds at a height of 6500 ft

METAR: KDSV 151654Z AUTO 36012KT 10SM FEW065 24/09 A3013 RMK AO2 SLP210 T02390094

Time: 13:53 (17:53 UTC)


TAF: missing

Weather observations and forecasts of more than 4000 airports (METAR and TAF reports).

The available stations are represented by yellow and red dots on the map.

Hover mouse over dot to see the name of the station.

Then click to see weather observations and forecasts.

To change the map : click on the green buttons with a black cross to zoom in, on the green button with a dash to zoom out, or on the green arrows for adjacent maps.


METAR-TAF: